createdAt,value
2023-02-27T00:01:51.995Z,85.86
2023-02-27T00:04:18.378Z,86.24
2023-02-27T00:06:44.795Z,86.14
2023-02-27T00:09:11.183Z,86.29
2023-02-27T00:11:38.541Z,86.23
2023-02-27T00:14:05.715Z,86.20
2023-02-27T00:16:32.208Z,86.11
2023-02-27T00:19:01.172Z,85.58
2023-02-27T00:21:28.085Z,85.62
2023-02-27T00:23:55.316Z,85.53
2023-02-27T00:26:21.766Z,85.46
2023-02-27T00:28:48.248Z,85.20
2023-02-27T00:31:14.868Z,85.33
2023-02-27T00:33:41.400Z,84.97
2023-02-27T00:36:07.954Z,85.22
2023-02-27T00:38:34.907Z,85.38
2023-02-27T00:41:01.536Z,85.43
2023-02-27T00:43:27.926Z,85.63
2023-02-27T00:45:54.323Z,85.73
2023-02-27T00:48:20.720Z,85.87
2023-02-27T00:50:47.475Z,85.81
2023-02-27T00:53:13.907Z,85.56
2023-02-27T00:55:40.336Z,85.93
2023-02-27T00:58:06.763Z,86.08
2023-02-27T01:00:33.179Z,86.43
2023-02-27T01:02:59.586Z,86.43
2023-02-27T01:05:26.040Z,86.52
2023-02-27T01:07:52.419Z,86.64
2023-02-27T01:10:18.910Z,86.61
2023-02-27T01:12:45.313Z,86.36
2023-02-27T01:15:12.515Z,86.02
2023-02-27T01:17:38.947Z,86.55
2023-02-27T01:20:07.485Z,86.64
2023-02-27T01:22:34.483Z,87.04
2023-02-27T01:25:01.279Z,87.17
2023-02-27T01:27:27.908Z,87.02
2023-02-27T01:29:54.344Z,86.35
2023-02-27T01:32:20.926Z,86.54
2023-02-27T01:34:47.403Z,86.45
2023-02-27T01:37:13.834Z,86.71
2023-02-27T01:39:40.268Z,87.17
2023-02-27T01:42:18.161Z,87.49
2023-02-27T01:45:12.074Z,88.02
2023-02-27T01:47:43.864Z,87.83
2023-02-27T01:50:12.062Z,87.71
2023-02-27T01:52:40.742Z,87.71
2023-02-27T01:55:08.780Z,87.72
2023-02-27T01:57:36.120Z,87.97
2023-02-27T02:00:04.402Z,88.10
2023-02-27T02:02:37.512Z,88.40
2023-02-27T02:05:06.835Z,88.05
2023-02-27T02:07:34.759Z,88.17
2023-02-27T02:10:02.458Z,88.13
2023-02-27T02:12:34.008Z,88.55
2023-02-27T02:15:00.507Z,88.76
2023-02-27T02:17:56.848Z,89.05
2023-02-27T02:20:56.641Z,89.01
2023-02-27T02:23:42.974Z,89.18
2023-02-27T02:26:25.005Z,89.35
2023-02-27T02:29:09.885Z,89.48
2023-02-27T02:31:36.258Z,89.80
2023-02-27T02:34:39.861Z,89.87
2023-02-27T02:37:40.380Z,89.58
2023-02-27T02:40:19.357Z,89.62
2023-02-27T02:42:56.628Z,90.10
2023-02-27T02:45:33.323Z,90.08
2023-02-27T02:48:27.755Z,90.24
2023-02-27T02:51:10.173Z,90.43
2023-02-27T02:54:00.104Z,90.21
2023-02-27T02:56:32.532Z,90.09
2023-02-27T02:59:10.732Z,90.42
2023-02-27T03:01:50.180Z,90.54
2023-02-27T03:04:24.201Z,90.58
2023-02-27T03:06:58.108Z,90.53
2023-02-27T03:09:37.636Z,90.65
2023-02-27T03:12:08.987Z,90.61
2023-02-27T03:14:43.467Z,90.77
2023-02-27T03:17:18.934Z,91.54
2023-02-27T03:19:52.622Z,91.85
2023-02-27T03:22:24.151Z,92.17
2023-02-27T03:24:54.492Z,91.21
2023-02-27T03:27:22.961Z,91.64
2023-02-27T03:30:08.798Z,91.17
2023-02-27T03:32:46.468Z,91.36
2023-02-27T03:35:13.519Z,91.72
2023-02-27T03:37:51.795Z,91.77
2023-02-27T03:40:25.126Z,91.48
2023-02-27T03:43:04.209Z,92.10
2023-02-27T03:45:53.761Z,92.08
2023-02-27T03:48:20.471Z,91.97
2023-02-27T03:50:47.115Z,91.55
2023-02-27T03:53:25.344Z,91.56
2023-02-27T03:55:53.433Z,91.41
2023-02-27T03:58:19.958Z,91.08
2023-02-27T04:00:46.363Z,91.21
2023-02-27T04:03:13.254Z,91.05
2023-02-27T04:05:39.724Z,91.31
2023-02-27T04:08:13.178Z,91.68
2023-02-27T04:11:07.123Z,91.90
2023-02-27T04:13:46.109Z,91.96
2023-02-27T04:16:40.386Z,91.95
2023-02-27T04:19:16.257Z,92.20
2023-02-27T04:22:17.926Z,92.27
2023-02-27T04:24:56.472Z,92.29
2023-02-27T04:27:46.304Z,92.02
2023-02-27T04:30:24.884Z,92.23
2023-02-27T04:33:13.062Z,92.06
2023-02-27T04:35:54.711Z,92.28
2023-02-27T04:38:39.249Z,91.67
2023-02-27T04:41:30.506Z,91.49
2023-02-27T04:43:58.070Z,91.76
2023-02-27T04:46:28.652Z,92.02
2023-02-27T04:49:09.059Z,92.21
2023-02-27T04:51:52.285Z,92.03
2023-02-27T04:54:27.487Z,92.09
2023-02-27T04:56:58.394Z,92.35
2023-02-27T04:59:28.341Z,92.44
2023-02-27T05:02:02.348Z,92.54
2023-02-27T05:04:32.935Z,92.72
2023-02-27T05:07:01.886Z,93.33
2023-02-27T05:09:35.048Z,93.67
2023-02-27T05:12:14.877Z,93.92
2023-02-27T05:15:16.118Z,94.06
2023-02-27T05:17:58.969Z,93.95
2023-02-27T05:20:30.380Z,93.61
2023-02-27T05:23:02.288Z,93.62
2023-02-27T05:25:41.226Z,93.85
2023-02-27T05:28:23.304Z,94.02
2023-02-27T05:31:18.529Z,94.02
2023-02-27T05:33:55.632Z,94.14
2023-02-27T05:36:28.154Z,93.93
2023-02-27T05:38:59.835Z,93.58
2023-02-27T05:41:31.723Z,93.41
2023-02-27T05:44:03.729Z,93.33
2023-02-27T05:46:46.190Z,93.33
2023-02-27T05:49:22.763Z,92.72
2023-02-27T05:51:53.098Z,93.32
2023-02-27T05:54:31.902Z,92.10
2023-02-27T05:56:59.651Z,91.79
2023-02-27T05:59:47.875Z,91.95
2023-02-27T06:02:14.574Z,92.17
2023-02-27T06:04:41.662Z,91.11
2023-02-27T06:07:08.672Z,92.67
2023-02-27T06:09:35.546Z,91.64
2023-02-27T06:12:02.144Z,90.99
2023-02-27T06:14:28.608Z,91.01
2023-02-27T06:16:55.079Z,90.98
2023-02-27T06:19:21.483Z,91.13
2023-02-27T06:21:47.861Z,90.96
2023-02-27T06:24:14.326Z,90.71
2023-02-27T06:26:40.762Z,90.71
2023-02-27T06:29:07.208Z,90.94
2023-02-27T06:31:33.726Z,90.90
2023-02-27T06:34:00.141Z,90.84
2023-02-27T06:36:29.468Z,90.80
2023-02-27T06:38:56.251Z,90.76
2023-02-27T06:41:22.629Z,93.22
2023-02-27T06:43:49.238Z,92.24
2023-02-27T06:46:15.649Z,91.71
2023-02-27T06:48:42.117Z,91.32
2023-02-27T06:51:08.521Z,91.45
2023-02-27T06:53:34.962Z,91.14
2023-02-27T06:56:01.337Z,91.57
2023-02-27T06:58:27.779Z,92.26
2023-02-27T07:00:54.286Z,93.80
2023-02-27T07:03:20.782Z,95.33
2023-02-27T07:05:47.202Z,95.94
2023-02-27T07:08:13.577Z,95.41
2023-02-27T07:10:42.854Z,95.18
2023-02-27T07:13:09.274Z,94.17
2023-02-27T07:15:35.718Z,93.91
2023-02-27T07:18:02.471Z,94.41
2023-02-27T07:20:28.897Z,94.42
2023-02-27T07:22:55.302Z,94.42
2023-02-27T07:25:21.757Z,93.53
2023-02-27T07:27:49.644Z,94.05
2023-02-27T07:30:16.931Z,92.96
2023-02-27T07:32:43.506Z,92.90
2023-02-27T07:35:10.299Z,93.86
2023-02-27T07:37:36.732Z,94.13
2023-02-27T07:40:04.054Z,93.63
2023-02-27T07:42:30.451Z,92.95
2023-02-27T07:44:56.913Z,92.83
2023-02-27T07:47:23.378Z,92.22
2023-02-27T07:49:49.788Z,92.47
2023-02-27T07:52:16.245Z,92.12
2023-02-27T07:54:42.698Z,91.67
2023-02-27T07:57:09.134Z,92.68
2023-02-27T07:59:35.625Z,93.25
2023-02-27T08:02:02.178Z,88.81
2023-02-27T08:04:28.670Z,88.44
2023-02-27T08:06:55.104Z,86.14
2023-02-27T08:09:21.536Z,83.45
2023-02-27T08:11:49.097Z,84.25
2023-02-27T08:14:16.031Z,83.38
2023-02-27T08:16:42.489Z,83.74
2023-02-27T08:19:09.000Z,83.07
2023-02-27T08:21:35.432Z,82.61
2023-02-27T08:24:02.032Z,82.15
2023-02-27T08:26:28.709Z,81.24
2023-02-27T08:28:55.306Z,78.87
2023-02-27T08:31:21.794Z,79.42
2023-02-27T08:33:49.615Z,77.68
2023-02-27T08:36:19.510Z,76.59
2023-02-27T08:38:45.928Z,75.20
2023-02-27T08:41:12.353Z,72.62
2023-02-27T08:43:38.724Z,72.15
2023-02-27T08:46:05.464Z,71.87
2023-02-27T08:48:31.899Z,69.09
2023-02-27T08:50:58.405Z,69.27
2023-02-27T08:53:25.398Z,66.60
2023-02-27T08:55:51.988Z,64.15
2023-02-27T08:58:18.545Z,63.55
2023-02-27T09:00:46.050Z,62.19
2023-02-27T09:03:12.696Z,60.96
2023-02-27T09:05:39.359Z,65.93
2023-02-27T09:08:07.107Z,69.24
2023-02-27T09:10:34.216Z,71.49
2023-02-27T09:13:01.276Z,73.35
2023-02-27T09:15:27.812Z,70.42
2023-02-27T09:17:56.478Z,64.72
2023-02-27T09:20:23.029Z,63.80
2023-02-27T09:22:49.515Z,66.48
2023-02-27T09:25:15.947Z,63.19
2023-02-27T09:27:42.331Z,63.06
2023-02-27T09:30:09.667Z,60.80
2023-02-27T09:32:36.117Z,60.46
2023-02-27T09:35:02.665Z,58.00
2023-02-27T09:37:29.126Z,55.76
2023-02-27T09:39:55.464Z,53.21
2023-02-27T09:42:25.551Z,51.80
2023-02-27T09:44:56.021Z,54.36
2023-02-27T09:47:43.795Z,52.86
2023-02-27T09:50:37.907Z,52.69
2023-02-27T09:53:07.306Z,52.43
2023-02-27T09:55:39.893Z,56.18
2023-02-27T09:58:24.405Z,55.57
2023-02-27T10:01:09.651Z,53.97
2023-02-27T10:04:05.441Z,55.94
2023-02-27T10:06:48.490Z,57.39
2023-02-27T10:09:43.028Z,55.00
2023-02-27T10:12:23.845Z,55.71
2023-02-27T10:15:05.931Z,55.93
2023-02-27T10:17:37.941Z,56.10
2023-02-27T10:20:10.588Z,55.67
2023-02-27T10:22:43.142Z,54.41
2023-02-27T10:25:30.421Z,56.19
2023-02-27T10:28:03.568Z,55.65
2023-02-27T10:30:33.564Z,56.87
2023-02-27T10:33:35.568Z,56.14
2023-02-27T10:36:03.637Z,55.98
2023-02-27T10:38:37.454Z,56.95
2023-02-27T10:41:06.004Z,56.39
2023-02-27T10:43:32.390Z,56.73
2023-02-27T10:46:03.602Z,57.56
2023-02-27T10:48:32.544Z,54.72
2023-02-27T10:51:23.569Z,55.40
2023-02-27T10:53:52.576Z,55.01
2023-02-27T10:56:27.891Z,55.62
2023-02-27T10:59:06.366Z,54.48
2023-02-27T11:01:49.099Z,54.51
2023-02-27T11:04:25.090Z,53.51
2023-02-27T11:06:53.762Z,52.25
2023-02-27T11:09:29.122Z,53.57
2023-02-27T11:12:09.445Z,52.73
2023-02-27T11:14:35.856Z,52.44
2023-02-27T11:17:03.257Z,52.80
2023-02-27T11:19:31.848Z,51.58
2023-02-27T11:22:13.727Z,50.20
2023-02-27T11:24:40.491Z,50.24
2023-02-27T11:27:29.199Z,50.66
2023-02-27T11:30:06.510Z,49.88
2023-02-27T11:32:40.863Z,50.97
2023-02-27T11:35:26.805Z,50.46
2023-02-27T11:37:55.658Z,51.12
2023-02-27T11:40:27.639Z,51.19
2023-02-27T11:42:57.533Z,50.15
2023-02-27T11:46:12.683Z,51.13
2023-02-27T11:48:28.857Z,50.43
2023-02-27T11:51:11.201Z,49.82
2023-02-27T11:54:11.332Z,50.18
2023-02-27T11:56:53.249Z,49.88
2023-02-27T11:59:19.635Z,50.33
2023-02-27T12:01:53.547Z,48.09
2023-02-27T12:04:41.740Z,49.45
2023-02-27T12:07:20.949Z,49.58
2023-02-27T12:09:59.507Z,49.92
2023-02-27T12:12:33.940Z,50.15
2023-02-27T12:15:00.369Z,49.70
2023-02-27T12:17:35.465Z,49.44
2023-02-27T12:20:18.467Z,50.90
2023-02-27T12:22:48.675Z,53.51
2023-02-27T12:25:34.691Z,51.38
2023-02-27T12:28:08.848Z,50.65
2023-02-27T12:31:01.745Z,51.68
2023-02-27T12:33:47.018Z,52.18
2023-02-27T12:36:14.627Z,53.70
2023-02-27T12:38:42.000Z,52.72
2023-02-27T12:41:19.216Z,54.79
2023-02-27T12:44:06.966Z,53.97
2023-02-27T12:46:39.584Z,53.59
2023-02-27T12:49:44.722Z,53.96
2023-02-27T12:52:23.209Z,54.13
2023-02-27T12:55:07.737Z,54.18
2023-02-27T12:57:48.949Z,57.09
2023-02-27T13:00:26.039Z,56.08
2023-02-27T13:03:18.091Z,54.01
2023-02-27T13:06:12.902Z,53.97
2023-02-27T13:08:45.281Z,55.83
2023-02-27T13:11:14.415Z,57.06
2023-02-27T13:14:01.920Z,57.66
2023-02-27T13:16:56.012Z,58.53
2023-02-27T13:20:04.966Z,55.09
2023-02-27T13:22:48.414Z,57.12
2023-02-27T13:25:17.427Z,54.87
2023-02-27T13:27:49.735Z,56.63
2023-02-27T13:30:35.118Z,59.67
2023-02-27T13:33:18.251Z,60.54
2023-02-27T13:36:09.821Z,49.96
2023-02-27T13:38:45.068Z,51.86
2023-02-27T13:41:21.660Z,56.63
2023-02-27T13:43:52.605Z,59.34
2023-02-27T13:46:24.980Z,56.39
2023-02-27T13:49:20.076Z,50.78
2023-02-27T13:51:56.685Z,55.78
2023-02-27T13:54:26.594Z,59.45
2023-02-27T13:56:58.854Z,60.39
2023-02-27T13:59:28.993Z,62.61
2023-02-27T14:02:25.440Z,55.41
2023-02-27T14:04:55.150Z,47.72
2023-02-27T14:07:34.077Z,53.25
2023-02-27T14:10:08.861Z,56.48
2023-02-27T14:12:45.690Z,57.39
2023-02-27T14:15:24.778Z,49.04
2023-02-27T14:18:12.600Z,43.38
2023-02-27T14:20:42.198Z,46.39
2023-02-27T14:23:22.728Z,53.10
2023-02-27T14:25:53.332Z,56.92
2023-02-27T14:28:42.943Z,58.38
2023-02-27T14:31:32.323Z,60.30
2023-02-27T14:34:05.237Z,56.25
2023-02-27T14:37:02.317Z,49.71
2023-02-27T14:39:35.190Z,51.28
2023-02-27T14:42:22.210Z,54.41
2023-02-27T14:44:50.855Z,52.59
2023-02-27T14:47:35.744Z,50.66
2023-02-27T14:50:08.315Z,52.03
2023-02-27T14:52:42.640Z,52.63
2023-02-27T14:55:18.303Z,46.84
2023-02-27T14:57:57.516Z,48.63
2023-02-27T15:00:39.382Z,53.12
2023-02-27T15:03:29.218Z,56.73
2023-02-27T15:06:01.110Z,58.73
2023-02-27T15:08:37.993Z,58.39
2023-02-27T15:11:05.332Z,58.84
2023-02-27T15:13:38.835Z,58.40
2023-02-27T15:16:24.467Z,60.07
2023-02-27T15:18:54.401Z,60.83
2023-02-27T15:21:24.400Z,60.76
2023-02-27T15:23:59.160Z,61.43
2023-02-27T15:26:29.909Z,62.42
2023-02-27T15:28:59.677Z,62.21
2023-02-27T15:31:29.956Z,61.44
2023-02-27T15:33:57.356Z,62.85
2023-02-27T15:36:27.641Z,61.91
2023-02-27T15:39:05.823Z,63.73
2023-02-27T15:41:32.785Z,64.13
2023-02-27T15:43:59.296Z,65.66
2023-02-27T15:46:26.189Z,65.68
2023-02-27T15:48:54.659Z,67.07
2023-02-27T15:51:21.112Z,67.85
2023-02-27T15:53:54.342Z,68.41
2023-02-27T15:56:27.240Z,67.76
2023-02-27T15:59:00.234Z,69.41
2023-02-27T16:01:30.446Z,69.75
2023-02-27T16:03:59.562Z,68.66
2023-02-27T16:06:29.889Z,68.40
2023-02-27T16:08:58.188Z,68.92
2023-02-27T16:11:30.441Z,69.88
2023-02-27T16:13:57.730Z,70.03
2023-02-27T16:16:34.892Z,69.01
2023-02-27T16:19:29.932Z,70.55
2023-02-27T16:22:13.556Z,71.50
2023-02-27T16:24:40.563Z,72.54
2023-02-27T16:27:14.262Z,72.89
2023-02-27T16:29:44.805Z,71.92
2023-02-27T16:32:28.637Z,73.40
2023-02-27T16:35:18.361Z,73.21
2023-02-27T16:37:45.892Z,74.88
2023-02-27T16:40:22.602Z,74.88
2023-02-27T16:42:49.893Z,75.52
2023-02-27T16:45:25.964Z,76.19
2023-02-27T16:47:54.579Z,76.76
2023-02-27T16:50:28.710Z,77.16
2023-02-27T16:52:55.157Z,77.05
2023-02-27T16:55:21.852Z,79.55
2023-02-27T16:57:48.351Z,79.11
2023-02-27T17:00:16.985Z,79.22
2023-02-27T17:02:43.558Z,80.86
2023-02-27T17:05:10.822Z,82.78
2023-02-27T17:07:37.388Z,83.27
2023-02-27T17:10:04.031Z,83.41
2023-02-27T17:12:30.415Z,82.49
2023-02-27T17:14:57.201Z,84.86
2023-02-27T17:17:23.586Z,86.04
2023-02-27T17:19:50.206Z,86.50
2023-02-27T17:22:16.816Z,87.02
2023-02-27T17:24:43.347Z,87.66
2023-02-27T17:27:09.849Z,89.00
2023-02-27T17:29:38.577Z,89.44
2023-02-27T17:32:05.686Z,89.61
2023-02-27T17:34:32.117Z,89.29
2023-02-27T17:36:58.512Z,91.28
2023-02-27T17:39:25.090Z,91.53
2023-02-27T17:41:52.850Z,91.09
2023-02-27T17:44:19.334Z,92.63
2023-02-27T17:46:45.728Z,93.90
2023-02-27T17:49:13.299Z,94.30
2023-02-27T17:51:39.813Z,93.59
2023-02-27T17:54:06.871Z,94.74
2023-02-27T17:56:35.577Z,94.71
2023-02-27T17:59:03.035Z,94.40
2023-02-27T18:01:29.556Z,94.06
2023-02-27T18:03:56.248Z,94.24
2023-02-27T18:06:23.922Z,93.50
2023-02-27T18:08:50.484Z,94.20
2023-02-27T18:11:19.106Z,95.56
2023-02-27T18:13:46.040Z,95.73
2023-02-27T18:16:12.730Z,95.31
2023-02-27T18:18:41.136Z,95.99
2023-02-27T18:21:14.614Z,94.66
2023-02-27T18:23:42.045Z,94.37
2023-02-27T18:26:27.215Z,94.58
2023-02-27T18:28:57.109Z,95.96
2023-02-27T18:31:27.000Z,98.57
2023-02-27T18:33:53.772Z,99.49
2023-02-27T18:36:21.155Z,99.71
2023-02-27T18:38:47.848Z,99.08
2023-02-27T18:41:14.545Z,98.30
2023-02-27T18:43:42.641Z,98.81
2023-02-27T18:46:11.103Z,98.91
2023-02-27T18:48:37.695Z,99.13
2023-02-27T18:51:12.178Z,99.02
2023-02-27T18:53:39.674Z,100.00
2023-02-27T18:56:08.065Z,100.00
2023-02-27T18:58:34.816Z,100.00
2023-02-27T19:01:01.344Z,100.00
2023-02-27T19:03:27.925Z,99.36
2023-02-27T19:05:54.564Z,98.94
2023-02-27T19:08:20.989Z,98.15
2023-02-27T19:10:47.498Z,98.47
2023-02-27T19:13:14.009Z,99.44
2023-02-27T19:15:40.667Z,98.34
2023-02-27T19:18:07.201Z,100.00
2023-02-27T19:20:34.764Z,99.37
2023-02-27T19:23:01.237Z,97.81
2023-02-27T19:25:27.712Z,97.33
2023-02-27T19:27:55.168Z,98.24
2023-02-27T19:30:22.108Z,95.82
2023-02-27T19:32:48.514Z,94.21
2023-02-27T19:35:15.268Z,92.34
2023-02-27T19:37:42.419Z,94.98
2023-02-27T19:40:10.518Z,93.47
2023-02-27T19:42:37.125Z,91.87
2023-02-27T19:45:03.839Z,92.35
2023-02-27T19:47:30.334Z,92.72
2023-02-27T19:49:56.708Z,91.16
2023-02-27T19:52:23.119Z,90.52
2023-02-27T19:54:49.560Z,90.97
2023-02-27T19:57:15.960Z,90.57
2023-02-27T19:59:42.468Z,89.87
2023-02-27T20:02:11.175Z,89.59
2023-02-27T20:04:37.733Z,89.43
2023-02-27T20:07:04.231Z,89.30
2023-02-27T20:09:33.201Z,89.11
2023-02-27T20:12:01.441Z,89.81
2023-02-27T20:14:28.793Z,89.20
2023-02-27T20:16:55.711Z,88.34
2023-02-27T20:19:23.399Z,88.80
2023-02-27T20:21:51.820Z,89.32
2023-02-27T20:24:18.781Z,91.29
2023-02-27T20:26:48.294Z,90.14
2023-02-27T20:29:18.790Z,89.83
2023-02-27T20:31:47.929Z,89.85
2023-02-27T20:34:16.973Z,89.08
2023-02-27T20:36:43.848Z,89.68
2023-02-27T20:39:11.654Z,89.34
2023-02-27T20:41:39.796Z,89.28
2023-02-27T20:44:08.533Z,89.63
2023-02-27T20:46:36.606Z,89.91
2023-02-27T20:49:04.975Z,90.13
2023-02-27T20:51:35.859Z,89.93
2023-02-27T20:54:04.635Z,89.91
2023-02-27T20:56:34.737Z,89.85
2023-02-27T20:59:05.174Z,90.00
2023-02-27T21:01:32.150Z,89.33
2023-02-27T21:03:59.400Z,89.96
2023-02-27T21:06:26.580Z,89.89
2023-02-27T21:08:55.784Z,90.28
2023-02-27T21:11:25.404Z,90.08
2023-02-27T21:13:51.864Z,90.25
2023-02-27T21:16:19.058Z,90.49
2023-02-27T21:18:45.792Z,90.19
2023-02-27T21:21:16.190Z,90.58
2023-02-27T21:23:43.630Z,94.32
2023-02-27T21:26:17.696Z,96.35
2023-02-27T21:28:47.839Z,96.55
2023-02-27T21:31:19.488Z,96.53
2023-02-27T21:33:46.002Z,94.33
2023-02-27T21:36:12.565Z,93.75
2023-02-27T21:38:40.023Z,93.24
2023-02-27T21:41:11.453Z,93.04
2023-02-27T21:43:40.474Z,92.93
2023-02-27T21:46:09.210Z,92.67
2023-02-27T21:48:36.022Z,92.60
2023-02-27T21:51:03.456Z,92.59
2023-02-27T21:53:30.409Z,92.58
2023-02-27T21:56:03.543Z,92.15
2023-02-27T21:58:30.051Z,93.46
2023-02-27T22:00:56.534Z,93.79
2023-02-27T22:03:22.974Z,94.30
2023-02-27T22:05:49.471Z,94.72
2023-02-27T22:08:15.922Z,94.42
2023-02-27T22:10:48.551Z,98.73
2023-02-27T22:13:15.906Z,98.65
2023-02-27T22:15:42.500Z,98.11
2023-02-27T22:18:09.088Z,97.08
2023-02-27T22:20:38.417Z,98.21
2023-02-27T22:23:05.031Z,96.91
2023-02-27T22:25:32.005Z,96.08
2023-02-27T22:27:59.649Z,95.14
2023-02-27T22:30:26.785Z,94.77
2023-02-27T22:32:53.707Z,94.16
2023-02-27T22:35:20.783Z,95.55
2023-02-27T22:37:47.197Z,95.14
2023-02-27T22:40:14.367Z,95.16
2023-02-27T22:42:40.783Z,95.62
2023-02-27T22:45:07.917Z,95.11
2023-02-27T22:47:34.425Z,95.31
2023-02-27T22:50:00.834Z,94.82
2023-02-27T22:52:27.293Z,95.20
2023-02-27T22:54:53.824Z,95.72
2023-02-27T22:57:20.237Z,97.13
2023-02-27T22:59:49.503Z,96.19
2023-02-27T23:02:17.239Z,95.87
2023-02-27T23:04:43.814Z,95.34
2023-02-27T23:07:10.278Z,95.50
2023-02-27T23:09:36.718Z,95.22
2023-02-27T23:12:04.367Z,95.45
2023-02-27T23:14:30.765Z,95.56
2023-02-27T23:16:57.205Z,95.92
2023-02-27T23:19:23.647Z,95.55
2023-02-27T23:21:50.135Z,95.32
2023-02-27T23:24:18.615Z,95.91
2023-02-27T23:26:48.187Z,95.77
2023-02-27T23:29:15.089Z,96.05
2023-02-27T23:31:42.388Z,96.13
2023-02-27T23:34:09.207Z,96.21
2023-02-27T23:36:37.333Z,96.75
2023-02-27T23:39:05.093Z,96.62
2023-02-27T23:41:32.465Z,97.47
2023-02-27T23:43:58.973Z,97.13
2023-02-27T23:46:30.130Z,97.61
2023-02-27T23:49:00.996Z,97.64
2023-02-27T23:51:30.259Z,98.03
2023-02-27T23:53:57.724Z,97.88
2023-02-27T23:56:27.516Z,97.53
2023-02-27T23:59:02.992Z,97.43
